Latest Weather Observations for Kalgoorlie-Boulder

IDW60801

Issued at 4:05 pm WST Wednesday 1 October 2014 (issued every 30 minutes, with the page automatically refreshed every 10 minutes)

About weather observations | Map of weather stations | Latest weather observations for WA | Other Formats
Station Details ID: 012038 Name: KALGOORLIE-BOULDER AIRPORT Lat: -30.78 Lon: 121.45 Height: 365.3 m
Data from the previous 72 hours. | See also: Recent months at Kalgoorlie-Boulder
Date/Time
WST
Temp
°C
App
Temp
°C
Dew
Point
Rel
Hum
%
Delta-T
°C
Wind Press
QNH
hPa
Press
MSL
hPa
Rain
since 9 am
mm
Dir
 
Spd
km/h
Gust
km/h
Spd
kts
Gust
kts
01/04:00pm 26.5 21.5 3.4 22 11.6 E 19 28 10 15 1019.4 - 0.0
01/03:30pm 26.3 21.8 4.1 24 11.3 ENE 17 24 9 13 1019.4 - 0.0
01/03:00pm 25.9 21.0 3.9 24 11.1 E 19 22 10 12 1019.7 1018.7 0.0
01/02:30pm 26.3 21.2 4.0 23 11.3 ENE 20 30 11 16 1019.9 - 0.0
01/02:00pm 26.6 21.0 3.3 22 11.7 E 22 28 12 15 1020.2 - 0.0
01/01:30pm 26.3 21.3 4.7 25 11.1 E 20 32 11 17 1020.6 - 0.0
01/01:00pm 26.2 21.3 5.1 26 10.9 ENE 20 28 11 15 1021.2 - 0.0
01/12:30pm 25.2 20.4 5.8 28 10.1 ENE 20 33 11 18 1021.5 - 0.0
01/12:00pm 24.9 19.5 6.4 30 9.7 E 24 30 13 16 1021.9 1020.9 0.0
01/11:30am 24.6 19.7 7.0 32 9.3 E 22 33 12 18 1022.5 - 0.0
01/11:00am 23.2 19.0 7.5 36 8.3 E 19 26 10 14 1023.1 - 0.0
01/10:30am 22.2 18.1 7.9 39 7.6 ENE 19 26 10 14 1023.8 - 0.0
01/10:00am 20.6 16.6 8.3 45 6.5 E 19 26 10 14 1024.1 - 0.0
01/09:30am 19.5 15.5 8.3 48 5.9 ESE 19 26 10 14 1024.5 - 0.0
01/09:00am 18.6 14.6 8.3 51 5.4 E 19 26 10 14 1025.0 1024.1 0.2
01/08:30am 17.5 13.5 8.2 54 4.8 ENE 19 26 10 14 1025.0 - 0.2
01/08:00am 16.9 12.4 8.4 57 4.4 E 22 32 12 17 1024.7 - 0.2
01/07:30am 15.7 11.6 8.5 62 3.7 ENE 20 30 11 16 1024.8 - 0.2
01/07:00am 15.1 11.0 8.5 64 3.4 ENE 20 28 11 15 1024.3 - 0.2
01/06:30am 14.4 11.2 8.5 67 3.0 E 15 22 8 12 1024.1 - 0.2
01/06:00am 13.6 9.4 8.3 70 2.7 ENE 20 22 11 12 1023.6 1022.6 0.2
01/05:30am 13.2 8.1 7.8 70 2.7 E 24 32 13 17 1022.7 - 0.2
01/05:00am 13.1 8.7 7.5 69 2.8 ESE 20 24 11 13 1022.7 - 0.2
01/04:30am 13.6 9.7 7.1 65 3.2 ESE 17 22 9 12 1022.8 - 0.2
01/04:00am 14.1 9.8 7.0 62 3.5 ESE 19 24 10 13 1022.7 - 0.2
01/03:30am 15.3 10.4 7.1 58 4.1 E 22 33 12 18 1022.7 - 0.2
01/03:00am 15.7 10.4 6.6 54 4.5 E 24 33 13 18 1022.5 1021.5 0.2
01/02:30am 16.2 11.1 6.0 51 5.0 E 22 30 12 16 1022.6 - 0.2
01/02:00am 16.6 11.5 5.8 49 5.3 E 22 32 12 17 1022.8 - 0.2
01/01:30am 15.1 11.2 5.3 52 4.7 ESE 15 20 8 11 1022.9 - 0.2
01/01:00am 15.1 10.8 5.3 52 4.7 ESE 17 22 9 12 1023.2 - 0.2
01/12:30am 15.3 11.8 5.3 51 4.8 ESE 13 17 7 9 1023.2 - 0.2
01/12:00am 16.1 12.2 5.4 49 5.2 ESE 15 17 8 9 1023.4 1022.9 0.2
 
Date/Time
WST
Temp
°C
App
Temp
°C
Dew
Point
Rel
Hum
%
Delta-T
°C
Wind Press
QNH
hPa
Press
MSL
hPa
Rain
since 9 am
mm
Dir
 
Spd
km/h
Gust
km/h
Spd
kts
Gust
kts
30/11:30pm 16.6 12.7 5.3 47 5.5 ESE 15 17 8 9 1023.6 - 0.2
30/11:00pm 16.8 13.3 5.3 46 5.6 SE 13 17 7 9 1023.7 - 0.2
30/10:30pm 17.1 13.6 5.5 46 5.7 SE 13 17 7 9 1023.7 - 0.2
30/10:00pm 17.0 13.1 5.3 46 5.7 ESE 15 19 8 10 1023.7 - 0.2
30/09:30pm 17.3 13.1 5.5 45 5.8 ESE 17 20 9 11 1023.6 - 0.2
30/09:00pm 16.6 13.5 5.5 48 5.4 SE 11 13 6 7 1023.8 1023.3 0.2
30/08:30pm 17.1 14.0 5.5 46 5.7 SE 11 13 6 7 1023.5 - 0.2
30/08:00pm 18.4 14.9 5.4 42 6.4 SE 13 15 7 8 1023.1 - 0.2
30/07:30pm 19.1 15.5 5.1 39 6.9 SE 13 17 7 9 1023.0 - 0.2
30/07:00pm 19.7 16.1 5.2 38 7.2 SE 13 15 7 8 1022.6 - 0.2
30/06:30pm 20.6 17.0 4.9 35 7.8 SE 13 17 7 9 1022.1 - 0.2
30/06:00pm 21.6 17.2 5.0 34 8.3 SE 17 20 9 11 1021.8 1021.3 0.2
30/05:30pm 22.8 18.8 5.0 31 9.0 ESE 15 22 8 12 1021.5 - 0.2
30/05:00pm 23.4 19.1 5.4 31 9.2 ESE 17 28 9 15 1021.4 - 0.2
30/04:30pm 23.9 20.0 5.3 30 9.5 SE 15 28 8 15 1021.2 - 0.2
30/04:00pm 23.8 19.9 5.5 30 9.4 E 15 22 8 12 1021.1 - 0.2
30/03:30pm 23.6 19.5 6.0 32 9.1 SE 17 26 9 14 1021.0 - 0.2
30/03:00pm 23.9 21.7 6.2 32 9.2 SSE 7 11 4 6 1020.9 1020.4 0.2
30/02:30pm 23.7 20.8 6.4 32 9.0 SE 11 26 6 14 1021.0 - 0.2
30/02:00pm 23.2 18.8 7.3 36 8.4 ESE 20 32 11 17 1021.2 - 0.2
30/01:30pm 23.8 19.7 7.7 35 8.6 ESE 19 24 10 13 1021.3 - 0.2
30/01:00pm 22.5 17.7 7.5 38 7.9 ESE 22 30 12 16 1021.8 - 0.2
30/12:30pm 22.4 19.0 7.6 38 7.8 ESE 15 24 8 13 1021.9 - 0.2
30/12:00pm 22.3 19.5 8.5 41 7.4 E 13 24 7 13 1022.1 1021.6 0.2
30/11:30am 21.3 17.6 8.1 42 7.0 E 17 28 9 15 1022.5 - 0.2
30/11:00am 20.9 17.4 8.7 45 6.5 E 17 26 9 14 1022.7 - 0.2
30/10:30am 20.7 17.7 9.4 48 6.1 SE 15 24 8 13 1022.9 - 0.2
30/10:00am 20.2 16.6 9.7 51 5.7 E 19 28 10 15 1023.2 - 0.2
30/09:30am 19.6 15.8 9.8 53 5.3 ESE 20 30 11 16 1023.2 - 0.0
30/09:00am 18.3 14.1 9.9 58 4.5 ESE 22 28 12 15 1023.2 1022.8 0.0
30/08:30am 17.2 13.0 9.9 62 3.9 SE 22 32 12 17 1023.1 - 0.0
30/08:00am 16.3 12.1 9.9 66 3.4 ESE 22 30 12 16 1023.1 - 0.0
30/07:30am 15.0 11.2 9.9 71 2.7 SE 20 28 11 15 1022.9 - 0.0
30/07:00am 13.9 9.5 8.8 71 2.6 SE 22 30 12 16 1022.6 - 0.0
30/06:30am 12.6 10.4 7.8 72 2.4 SSE 9 15 5 8 1022.4 - 0.0
30/06:00am 10.4 8.0 6.9 79 1.7 S 9 13 5 7 1022.1 1021.6 0.0
30/05:30am 10.0 6.7 6.6 79 1.6 S 13 15 7 8 1021.7 - 0.0
30/05:00am 10.3 7.4 6.3 76 1.9 S 11 13 6 7 1021.1 - 0.0
30/04:30am 11.2 7.6 6.6 73 2.2 S 15 17 8 9 1020.5 - 0.0
30/04:00am 12.4 8.5 6.9 69 2.7 SSW 17 20 9 11 1020.0 - 0.0
30/03:30am 13.0 8.7 6.9 66 3.0 SSW 19 24 10 13 1019.6 - 0.0
30/03:00am 13.5 9.5 6.8 64 3.3 SSW 17 20 9 11 1019.4 1018.9 0.0
30/02:30am 13.2 9.5 6.4 63 3.3 SW 15 17 8 9 1019.2 - 0.0
30/02:00am 13.5 10.2 6.3 61 3.5 SW 13 17 7 9 1019.0 - 0.0
30/01:30am 13.5 10.5 6.1 61 3.6 SSW 11 15 6 8 1019.0 - 0.0
30/01:00am 13.7 10.7 5.8 59 3.8 SW 11 13 6 7 1018.9 - 0.0
30/12:30am 13.5 10.5 5.8 59 3.7 SSW 11 13 6 7 1019.1 - 0.0
30/12:00am 14.4 11.7 5.7 56 4.2 SSW 9 11 5 6 1019.1 1018.6 0.0
 
Date/Time
WST
Temp
°C
App
Temp
°C
Dew
Point
Rel
Hum
%
Delta-T
°C
Wind Press
QNH
hPa
Press
MSL
hPa
Rain
since 9 am
mm
Dir
 
Spd
km/h
Gust
km/h
Spd
kts
Gust
kts
29/11:30pm 14.5 11.8 5.6 55 4.3 SSW 9 13 5 7 1019.1 - 0.0
29/11:00pm 15.4 12.3 5.5 51 4.8 SSW 11 15 6 8 1019.1 - 0.0
29/10:30pm 15.9 12.8 5.4 49 5.1 SSW 11 15 6 8 1019.1 - 0.0
29/10:00pm 16.5 12.9 5.2 47 5.5 SW 13 15 7 8 1019.0 - 0.0
29/09:30pm 17.5 13.9 5.0 43 6.1 SW 13 17 7 9 1018.8 - 0.0
29/09:00pm 17.7 14.1 5.0 43 6.2 SW 13 15 7 8 1018.6 1018.1 0.0
29/08:30pm 18.6 15.0 5.2 41 6.6 WSW 13 17 7 9 1018.4 - 0.0
29/08:00pm 19.3 15.4 5.5 40 6.9 WSW 15 19 8 10 1018.1 - 0.0
29/07:30pm 19.9 16.4 5.3 38 7.3 WSW 13 19 7 10 1017.4 - 0.0
29/07:00pm 20.3 16.8 5.3 37 7.5 WSW 13 19 7 10 1017.0 - 0.0
29/06:30pm 20.8 17.7 5.5 36 7.7 W 11 15 6 8 1016.5 - 0.0
29/06:00pm 21.9 18.0 5.3 34 8.4 W 15 20 8 11 1016.1 1015.6 0.0
29/05:30pm 22.8 17.9 5.0 31 9.0 WSW 20 28 11 15 1015.6 - 0.0
29/05:00pm 23.8 18.1 4.9 29 9.6 WSW 24 30 13 16 1015.3 - 0.0
29/04:30pm 24.2 18.1 5.0 29 9.8 W 26 37 14 20 1015.1 - 0.0
29/04:00pm 24.8 19.1 4.9 27 10.2 W 24 32 13 17 1015.0 - 0.0
29/03:30pm 24.9 17.8 3.5 25 10.7 WSW 30 41 16 22 1014.9 - 0.0
29/03:00pm 25.1 19.1 3.5 24 10.8 W 24 39 13 21 1014.7 1014.1 0.0
29/02:30pm 25.6 19.7 3.8 24 11.0 W 24 48 13 26 1014.3 - 0.0
29/02:00pm 24.7 19.7 4.4 27 10.3 W 20 39 11 21 1014.7 - 0.0
29/01:30pm 25.7 19.1 4.0 24 11.0 WSW 28 41 15 22 1014.9 - 0.0
29/01:00pm 24.7 19.7 4.7 27 10.2 WNW 20 35 11 19 1015.0 - 0.0
29/12:30pm 23.8 19.0 4.9 29 9.6 WNW 19 39 10 21 1015.4 - 0.0
29/12:00pm 23.5 17.4 5.0 30 9.4 WNW 26 41 14 22 1015.9 1015.4 0.0
29/11:30am 22.6 16.2 5.0 32 8.9 W 28 33 15 18 1016.2 - 0.0
29/11:00am 21.9 17.2 5.9 35 8.2 WNW 20 33 11 18 1016.7 - 0.0
29/10:30am 20.9 16.2 6.2 38 7.5 W 20 33 11 18 1017.1 - 0.0
29/10:00am 20.6 17.0 6.6 40 7.2 WNW 15 24 8 13 1017.2 - 0.0
29/09:30am 19.1 16.1 6.2 43 6.5 WSW 11 20 6 11 1017.4 - 0.0
29/09:00am 19.0 16.1 6.4 43 6.4 WSW 11 24 6 13 1017.6 1017.0 0.0
29/08:30am 17.9 14.5 7.6 51 5.3 SSW 15 20 8 11 1017.7 - 0.0
29/08:00am 16.8 13.0 7.4 54 4.8 SW 17 24 9 13 1017.7 - 0.0
29/07:30am 15.2 11.8 7.5 60 3.9 SW 15 22 8 12 1017.7 - 0.0
29/07:00am 13.4 10.6 7.1 65 3.1 WSW 11 15 6 8 1017.4 - 0.0
29/06:30am 11.4 10.4 5.7 68 2.7 CALM 0 0 0 0 1017.1 - 0.0
29/06:00am 8.5 7.3 4.5 76 1.8 CALM 0 0 0 0 1016.8 1016.3 0.0
29/05:30am 8.7 6.2 4.7 76 1.8 WSW 7 9 4 5 1016.5 - 0.0
29/05:00am 8.9 6.4 4.5 74 2.0 WSW 7 9 4 5 1016.3 - 0.0
29/04:30am 9.7 6.7 4.2 68 2.5 WSW 9 11 5 6 1016.2 - 0.0
29/04:00am 9.9 6.9 4.1 67 2.6 WSW 9 11 5 6 1016.2 - 0.0
29/03:30am 10.7 7.7 4.1 63 3.0 W 9 15 5 8 1016.0 - 0.0
29/03:00am 10.8 8.4 4.2 64 3.0 WSW 6 11 3 6 1016.0 1015.5 0.0
29/02:30am 9.9 7.3 4.4 68 2.5 WSW 7 11 4 6 1016.0 - 0.0
29/02:00am 10.9 9.6 4.3 64 3.0 CALM 0 7 0 4 1016.1 - 0.0
29/01:30am 10.9 9.7 4.6 65 2.9 CALM 0 0 0 0 1016.2 - 0.0
29/01:00am 12.2 11.0 4.4 59 3.6 CALM 0 0 0 0 1016.1 - 0.0
29/12:30am 12.0 10.8 4.4 59 3.5 CALM 0 4 0 2 1016.2 - 0.0
29/12:00am 13.7 10.2 3.7 51 4.6 SSW 11 15 6 8 1016.3 1015.8 0.0
 
Date/Time
WST
Temp
°C
App
Temp
°C
Dew
Point
Rel
Hum
%
Delta-T
°C
Wind Press
QNH
hPa
Press
MSL
hPa
Rain
since 9 am
mm
Dir
 
Spd
km/h
Gust
km/h
Spd
kts
Gust
kts
28/11:30pm 13.2 9.8 3.9 53 4.3 SSW 11 13 6 7 1016.4 - 0.0
28/11:00pm 13.9 10.9 4.0 51 4.6 SSW 9 11 5 6 1016.4 - 0.0
28/10:30pm 14.2 11.1 3.6 49 4.9 SSW 9 11 5 6 1016.6 - 0.0
28/10:00pm 15.0 11.5 3.3 45 5.4 SSW 11 13 6 7 1016.8 - 0.0
28/09:30pm 15.7 11.8 3.2 43 5.8 SW 13 15 7 8 1017.0 - 0.0
28/09:00pm 16.0 12.8 3.1 42 6.0 SW 9 13 5 7 1017.1 1016.6 0.0
28/08:30pm 16.9 12.9 2.6 38 6.6 SW 13 15 7 8 1017.0 - 0.0
28/08:00pm 17.5 13.4 2.4 36 7.0 WSW 13 17 7 9 1016.9 - 0.0
28/07:30pm 17.7 14.0 2.4 36 7.1 WSW 11 13 6 7 1016.6 - 0.0
28/07:00pm 18.0 14.3 2.6 35 7.2 WSW 11 11 6 6 1016.3 - 0.0
28/06:30pm 18.8 15.1 2.3 33 7.7 WSW 11 13 6 7 1016.0 - 0.0
28/06:00pm 20.3 16.1 1.6 29 8.7 WSW 13 17 7 9 1015.6 1015.1 0.0
28/05:30pm 21.5 16.9 1.8 27 9.3 W 15 20 8 11 1015.4 - 0.0
28/05:00pm 22.2 18.0 1.4 25 9.8 WNW 13 15 7 8 1015.1 - 0.0
28/04:30pm 22.6 17.5 0.7 23 10.2 WSW 17 24 9 13 1014.9 - 0.0

Other Formats:

Comma delimited format used in spreadsheet applications
http://www.bom.gov.au/fwo/IDW60801/IDW60801.94637.axf

JavaScript Object Notation format (JSON) in row-major order
http://www.bom.gov.au/fwo/IDW60801/IDW60801.94637.json